This is the latest recevied weather packets stored in our database for station/object WV8MT. If no packets are shown the sender has not sent any weather packets the latest 10 day(s).
| Time | Temp. | Humidity | Pressure | Rain* | Wind** | Luminosity | Snow |
|---|---|---|---|---|---|---|---|
| 1777534827 | 10° C | 99% | 1013.6 hPa | 0 mm | - | - | - |
| 1777527020 | 10° C | 99% | 1013.4 hPa | 0 mm | - | - | - |
| 1777521626 | 11.11° C | 99% | 1013.7 hPa | 0 mm | - | - | - |
| 1777515630 | 12.22° C | 99% | 1013.9 hPa | 0.25 mm | - | - | - |
| 1777512019 | 12.78° C | 99% | 1013.7 hPa | 0 mm | - | - | - |
| 1777503621 | 16.67° C | 99% | 1011.1 hPa | 0 mm | - | - | - |
| 1777497626 | 15.56° C | 99% | 1011.1 hPa | 1.52 mm | - | - | - |
| 1777496436 | 15.56° C | 99% | 1011.4 hPa | 0.25 mm | - | - | - |
| 1777492228 | 16.11° C | 99% | 1012.3 hPa | 0.51 mm | - | - | - |
| 1777491629 | 16.11° C | 99% | 1012.3 hPa | 0 mm | - | - | - |
| 1777486232 | 17.78° C | 96% | 1013.4 hPa | 0.51 mm | - | - | - |
| 1777480831 | 15° C | 99% | 1015.5 hPa | 3.3 mm | - | - | - |
| 1777480219 | 15° C | 99% | 1015.6 hPa | 2.79 mm | - | - | - |
| 1777469418 | 15.56° C | 98% | 1017.1 hPa | 0 mm | - | - | - |
| 1777468822 | 15.56° C | 98% | 1017.2 hPa | 0 mm | - | - | - |
| 1777455620 | 12.78° C | 99% | 1017.8 hPa | 0 mm | - | - | - |
| 1777453820 | 13.33° C | 99% | 1018 hPa | 0 mm | - | - | - |
| 1777452638 | 13.33° C | 99% | 1017.8 hPa | 0 mm | - | - | - |
| 1777442418 | 13.33° C | 99% | 1019.1 hPa | 0 mm | - | - | - |
| 1777440037 | 15° C | 98% | 1019.5 hPa | 0 mm | - | - | - |
| 1777438229 | 15.56° C | 95% | 1020.1 hPa | 0 mm | - | - | - |
| 1777436423 | 16.11° C | 95% | 1020.4 hPa | 0 mm | - | - | - |
| 1777431619 | 15.56° C | 95% | 1020.9 hPa | 0 mm | - | - | - |
| 1777425047 | 16.11° C | 91% | 1020.1 hPa | 0 mm | - | - | - |
| 1777419025 | 20° C | 75% | 1018.2 hPa | 0 mm | - | - | - |
* Rain latest hour (hover to see other rain measurements)
** Current wind speed in m/s (hover to see current wind gust speed)